Latest Weather Observations for Giles*

IDD60801

Issued at 11:35 am CST Friday 21 November 2014 (issued every 30 minutes, with the page automatically refreshed every 10 minutes)

About weather observations | Map of weather stations | Latest weather observations for NT | Other Formats
Station Details ID: 013017 Name: GILES METEOROLOGICAL OFFICE Lat: -25.03 Lon: 128.30 Height: 598.0 m
Data from the previous 72 hours. | See also: Recent months at Giles*

* Giles observations are collected in the South Australia time zone, which includes daylight saving in the summer period. Therefore, Rain since 9am value is with respect to South Australia local time.

Date/Time
CST
Temp
°C
App
Temp
°C
Dew
Point
Rel
Hum
%
Delta-T
°C
Wind Press
QNH
hPa
Press
MSL
hPa
Rain
since 9 am
mm
Dir
 
Spd
km/h
Gust
km/h
Spd
kts
Gust
kts
21/11:30am 37.0 28.4 -13.2 3 21.0 W 28 41 15 22 1012.5 - 0.0
21/11:00am 36.6 28.6 -9.9 5 20.4 W 26 39 14 21 1012.7 1008.6 0.0
21/10:30am 35.9 27.6 -8.5 5 19.8 WNW 28 39 15 21 1012.9 - 0.0
21/10:00am 35.4 27.9 -4.5 7 18.9 WNW 26 37 14 20 1012.9 - 0.0
21/09:30am 34.5 28.8 0.3 11 17.4 WNW 20 32 11 17 1012.9 - 0.0
21/09:00am 32.5 29.1 7.8 21 14.0 WNW 15 20 8 11 1013.0 - 0.0
21/08:30am 29.9 28.1 9.4 28 11.8 N 9 13 5 7 1012.9 - 0.0
21/08:00am 27.4 27.0 12.5 39 8.9 N 6 7 3 4 1012.9 1008.8 0.0
21/07:30am 26.6 27.4 13.6 44 7.9 E 2 7 1 4 1012.6 - 0.0
21/07:00am 24.3 25.2 12.8 48 6.8 CALM 0 0 0 0 1012.3 - 0.0
21/06:30am 20.8 19.5 11.1 53 5.5 S 9 11 5 6 1011.9 - 0.0
21/06:00am 20.4 19.0 10.8 54 5.4 SSE 9 13 5 7 1011.6 - 0.0
21/05:30am 22.7 21.7 12.4 52 6.0 E 9 13 5 7 1011.3 - 0.0
21/05:00am 22.9 21.3 11.7 49 6.5 ENE 11 13 6 7 1011.2 1007.1 0.0
21/04:30am 21.6 21.3 10.2 48 6.4 SE 2 7 1 4 1011.1 - 0.0
21/04:00am 21.6 20.2 9.7 46 6.6 SSE 7 9 4 5 1011.1 - 0.0
21/03:30am 23.8 22.5 11.3 45 7.2 E 9 11 5 6 1011.0 - 0.0
21/03:00am 23.7 21.8 10.5 43 7.5 ESE 11 13 6 7 1011.0 - 0.0
21/02:30am 24.1 23.0 10.6 42 7.7 ESE 7 9 4 5 1011.3 - 0.0
21/02:00am 24.7 23.1 10.3 40 8.2 SSW 9 11 5 6 1011.4 1007.3 0.0
21/01:30am 24.8 22.8 10.0 39 8.4 SE 11 13 6 7 1011.6 - 0.0
21/01:00am 26.5 24.2 10.3 36 9.3 ESE 13 17 7 9 1011.8 - 0.0
21/12:30am 27.3 24.1 9.8 33 10.0 ESE 17 20 9 11 1012.2 - 0.0
21/12:00am 27.2 25.0 9.4 32 10.1 E 11 13 6 7 1012.6 - 0.0
 
Date/Time
CST
Temp
°C
App
Temp
°C
Dew
Point
Rel
Hum
%
Delta-T
°C
Wind Press
QNH
hPa
Press
MSL
hPa
Rain
since 9 am
mm
Dir
 
Spd
km/h
Gust
km/h
Spd
kts
Gust
kts
20/11:30pm 27.9 25.2 7.4 27 11.3 ESE 11 13 6 7 1012.4 - 0.0
20/11:00pm 28.3 25.2 5.5 23 12.2 SE 11 13 6 7 1012.6 1008.5 0.0
20/10:30pm 29.2 26.3 4.7 21 13.0 SSE 9 13 5 7 1012.6 - 0.0
20/10:00pm 30.2 26.7 3.7 18 13.9 SSW 11 11 6 6 1012.1 - 0.0
20/09:30pm 31.0 28.1 2.6 16 14.7 W 7 19 4 10 1011.6 - 0.0
20/09:00pm 31.9 29.0 4.8 18 14.6 W 9 11 5 6 1011.1 - 0.0
20/08:30pm 32.7 29.4 4.5 17 15.2 W 11 13 6 7 1010.9 - 0.0
20/08:00pm 34.2 30.3 3.2 14 16.5 WSW 13 19 7 10 1010.6 1006.5 0.0
20/07:30pm 35.4 30.2 3.8 14 17.1 W 20 30 11 16 1010.1 - 0.0
20/07:00pm 36.4 30.8 3.5 13 17.8 W 22 32 12 17 1009.8 - 0.0
20/06:30pm 36.4 31.3 4.3 13 17.6 SW 20 28 11 15 1009.6 - 0.0
20/06:00pm 36.9 31.1 4.3 13 17.9 W 24 39 13 21 1009.5 - 0.0
20/05:30pm 37.7 31.6 4.7 13 18.3 WNW 26 41 14 22 1009.3 - 0.0
20/05:00pm 37.7 32.0 4.7 13 18.3 W 24 41 13 22 1009.4 1005.3 0.0
20/04:38pm 37.9 31.3 4.1 12 18.6 W 28 46 15 25 1009.4 - 0.0
20/04:30pm 37.7 32.0 4.7 13 18.3 W 24 39 13 21 1009.5 - 0.0
20/04:05pm 37.9 30.8 3.7 12 18.7 W 30 48 16 26 1009.6 - 0.0
20/04:00pm 37.7 31.7 3.6 12 18.6 WSW 24 28 13 15 1009.7 - 0.0
20/03:49pm 38.1 31.4 3.5 12 18.9 W 28 57 15 31 1009.8 - 0.0
20/03:30pm 38.2 32.0 4.1 12 18.8 NW 26 35 14 19 1010.0 - 0.0
20/03:00pm 38.2 32.3 5.8 13 18.3 W 26 39 14 21 1010.6 - 0.0
20/02:30pm 37.1 30.9 6.1 15 17.5 WNW 28 41 15 22 1011.0 - 0.0
20/02:00pm 36.3 32.7 8.5 18 16.2 NW 17 37 9 20 1011.4 1007.3 0.0
20/01:30pm 36.5 31.0 7.7 17 16.6 W 26 39 14 21 1011.9 - 0.0
20/01:00pm 35.9 32.7 9.8 20 15.5 W 17 28 9 15 1012.6 - 0.0
20/12:30pm 34.7 33.0 11.1 23 14.2 W 11 24 6 13 1013.1 - 0.0
20/12:00pm 33.8 30.4 11.4 25 13.5 N 20 26 11 14 1013.6 - 0.0
20/11:30am 33.1 31.7 12.2 28 12.7 WNW 11 19 6 10 1014.2 - 0.0
20/11:00am 32.2 29.4 12.5 30 12.0 N 19 22 10 12 1014.4 1010.3 0.0
20/10:30am 31.2 30.3 12.6 32 11.3 SE 9 15 5 8 1014.8 - 0.0
20/10:00am 30.8 29.5 13.8 35 10.5 NE 13 19 7 10 1014.9 - 0.0
20/09:30am 29.2 27.3 14.1 39 9.3 E 17 22 9 12 1014.9 - 0.0
20/09:00am 27.6 25.5 14.7 45 8.0 E 19 28 10 15 1014.8 - 0.0
20/08:30am 26.0 23.8 15.0 50 6.8 E 20 28 11 15 1014.9 - 0.0
20/08:00am 25.7 23.5 15.0 51 6.6 E 20 26 11 14 1014.8 1010.7 0.0
20/07:30am 24.8 22.9 15.2 55 5.9 E 19 26 10 14 1014.6 - 0.0
20/07:00am 24.1 23.0 15.3 58 5.4 E 15 19 8 10 1014.5 - 0.0
20/06:30am 23.3 23.0 15.5 61 4.8 SE 11 15 6 8 1014.8 - 0.0
20/06:00am 23.0 22.6 15.3 62 4.7 SE 11 15 6 8 1013.9 - 0.0
20/05:30am 22.9 22.2 15.4 62 4.6 SE 13 19 7 10 1013.4 - 0.0
20/05:00am 22.8 22.6 15.7 64 4.4 SSE 11 15 6 8 1013.3 1009.2 0.0
20/04:30am 23.3 23.4 15.5 61 4.8 S 9 17 5 9 1013.0 - 0.0
20/04:00am 23.7 22.6 15.2 59 5.2 SW 15 22 8 12 1013.0 - 0.0
20/03:30am 24.1 22.0 14.6 55 5.8 SSW 19 28 10 15 1012.3 - 0.0
20/03:00am 24.0 24.2 14.3 54 5.9 WNW 6 11 3 6 1011.8 - 0.0
20/02:30am 25.1 24.7 14.1 50 6.7 E 9 15 5 8 1012.1 - 0.0
20/02:00am 24.7 23.1 15.1 55 5.9 E 17 20 9 11 1012.6 1008.5 0.0
20/01:30am 25.3 24.6 15.3 54 6.2 NE 13 20 7 11 1013.2 - 0.0
20/01:00am 24.6 22.4 15.9 58 5.4 ENE 22 32 12 17 1013.5 - 0.0
20/12:30am 24.6 23.0 15.9 58 5.4 E 19 26 10 14 1013.1 - 0.0
20/12:00am 24.9 25.1 15.7 56 5.7 SE 9 13 5 7 1014.8 - 0.0
 
Date/Time
CST
Temp
°C
App
Temp
°C
Dew
Point
Rel
Hum
%
Delta-T
°C
Wind Press
QNH
hPa
Press
MSL
hPa
Rain
since 9 am
mm
Dir
 
Spd
km/h
Gust
km/h
Spd
kts
Gust
kts
19/11:30pm 25.3 27.2 15.7 55 6.0 CALM 0 0 0 0 1016.0 - 0.0
19/11:00pm 25.1 25.7 15.8 56 5.8 S 7 11 4 6 1016.2 1012.1 0.0
19/10:30pm 25.2 24.9 15.5 55 6.0 SW 11 15 6 8 1016.5 - 0.0
19/10:00pm 25.1 23.1 15.4 55 6.0 ESE 20 26 11 14 1014.8 - 0.0
19/09:30pm 25.4 23.1 14.6 51 6.6 ESE 20 28 11 15 1014.7 - 0.0
19/09:00pm 25.8 23.3 14.1 48 7.1 SSE 20 30 11 16 1014.6 - 0.0
19/08:30pm 25.9 23.1 14.3 48 7.1 SSW 22 35 12 19 1014.6 - 0.0
19/08:00pm 26.4 23.8 14.9 49 7.1 SSW 22 30 12 16 1014.9 1010.9 0.0
19/07:30pm 27.0 24.0 14.7 47 7.6 SSW 24 35 13 19 1013.9 - 0.0
19/07:00pm 27.9 23.7 14.6 44 8.2 SW 30 43 16 23 1013.7 - 0.0
19/06:48pm 27.9 23.0 15.4 46 7.8 SW 35 54 19 29 1013.0 - 0.0
19/06:30pm 28.7 22.4 14.7 42 8.7 WSW 41 56 22 30 1012.9 - 0.0
19/06:24pm 30.9 23.5 12.4 32 11.2 WSW 43 54 23 29 1012.6 - 0.0
19/06:00pm 36.0 30.7 2.9 12 17.7 N 20 32 11 17 1011.2 - 0.0
19/05:30pm 36.4 30.4 3.5 13 17.8 NW 24 35 13 19 1011.2 - 0.0
19/05:00pm 36.2 30.3 3.8 13 17.6 NNW 24 35 13 19 1011.4 1007.3 0.0
19/04:30pm 36.2 30.0 4.1 13 17.5 N 26 35 14 19 1011.3 - 0.0
19/04:00pm 37.2 29.9 2.3 11 18.6 N 30 44 16 24 1011.6 - 0.0
19/03:52pm 37.0 29.9 3.4 12 18.2 NNE 30 54 16 29 1011.4 - 0.0
19/03:30pm 37.8 29.8 1.8 10 19.1 N 33 44 18 24 1011.7 - 0.0
19/03:00pm 37.0 30.9 2.6 11 18.4 N 24 37 13 20 1012.3 - 0.0
19/02:52pm 36.9 30.0 2.4 11 18.4 N 28 44 15 24 1012.4 - 0.0
19/02:30pm 36.8 31.7 2.9 12 18.2 N 19 26 10 14 1013.0 - 0.0
19/02:00pm 35.7 28.9 3.3 13 17.4 N 28 44 15 24 1013.6 1009.6 0.0
19/01:30pm 35.1 29.7 4.4 14 16.7 N 22 35 12 19 1014.1 - 0.0
19/01:00pm 36.7 30.2 4.5 13 17.7 NNE 28 39 15 21 1014.6 - 0.0
19/12:30pm 35.3 30.5 4.9 15 16.7 N 19 30 10 16 1015.3 - 0.0
19/12:00pm 33.6 28.7 5.3 17 15.5 N 20 26 11 14 1016.0 - 0.0
19/11:30am 34.0 27.5 4.8 16 15.9 N 28 35 15 19 1016.3 - 0.0
19/11:00am 33.2 27.7 6.1 18 15.0 N 24 26 13 14 1016.5 1012.5 0.0
19/10:30am 31.1 25.6 6.0 20 13.7 N 24 32 13 17 1016.8 - 0.0
19/10:00am 31.0 26.7 7.1 22 13.3 N 19 26 10 14 1017.1 - 0.0
19/09:30am 30.2 26.0 7.4 24 12.7 N 19 20 10 11 1017.4 - 0.0
19/09:00am 30.0 25.6 7.6 24 12.5 N 20 24 11 13 1017.4 - 0.0
19/08:30am 30.2 26.0 7.4 24 12.7 N 19 22 10 12 1017.0 - 0.0
19/08:00am 28.4 28.3 10.9 33 10.2 E 2 7 1 4 1016.6 1012.6 0.0
19/07:30am 26.4 26.0 12.4 41 8.3 ESE 6 7 3 4 1016.4 - 0.0
19/07:00am 24.7 24.2 12.5 46 7.2 E 7 9 4 5 1016.3 - 0.0
19/06:30am 24.8 23.8 12.2 45 7.4 ENE 9 13 5 7 1016.1 - 0.0
19/06:00am 23.6 21.9 12.3 49 6.6 E 13 13 7 7 1015.9 - 0.0
19/05:30am 22.9 22.5 12.3 51 6.2 SE 6 9 3 5 1015.5 - 0.0
19/05:00am 25.5 23.7 12.1 43 7.9 E 13 15 7 8 1015.1 1011.1 0.0
19/04:30am 25.0 24.0 12.3 45 7.5 E 9 11 5 6 1014.9 - 0.0
19/04:00am 25.3 23.9 12.2 44 7.7 E 11 13 6 7 1014.8 - 0.0
19/03:30am 25.8 25.4 12.5 43 7.9 E 6 9 3 5 1014.9 - 0.0
19/03:00am 26.0 26.9 12.9 44 7.8 CALM 0 0 0 0 1015.1 - 0.0
19/02:30am 25.4 26.0 11.9 43 7.9 CALM 0 0 0 0 1015.3 - 0.0
19/02:00am 27.0 25.4 11.7 38 9.0 SSW 11 15 6 8 1015.4 1011.4 0.0
19/01:30am 27.9 25.9 11.4 35 9.7 SSW 13 17 7 9 1015.8 - 0.0
19/01:00am 29.3 26.7 9.4 29 11.4 WSW 13 17 7 9 1016.1 - 0.0
19/12:30am 30.3 27.0 9.7 27 11.9 N 17 22 9 12 1016.0 - 0.0
19/12:00am 30.2 26.9 9.5 27 11.9 N 17 20 9 11 1016.2 - 0.0
 
Date/Time
CST
Temp
°C
App
Temp
°C
Dew
Point
Rel
Hum
%
Delta-T
°C
Wind Press
QNH
hPa
Press
MSL
hPa
Rain
since 9 am
mm
Dir
 
Spd
km/h
Gust
km/h
Spd
kts
Gust
kts
18/11:30pm 30.2 27.1 8.8 26 12.2 N 15 20 8 11 1016.3 - 0.0
18/11:00pm 31.4 27.0 6.6 21 13.7 N 19 30 10 16 1016.3 1012.2 0.0
18/10:30pm 30.6 27.7 6.3 21 13.3 NE 11 13 6 7 1016.2 - 0.0
18/10:00pm 30.9 28.4 6.6 21 13.4 NNE 9 11 5 6 1016.0 - 0.0
18/09:30pm 31.2 29.0 6.2 21 13.7 NNE 7 9 4 5 1016.0 - 0.0
18/09:00pm 32.4 30.6 7.0 20 14.2 N 6 6 3 3 1015.8 - 0.0
18/08:30pm 32.9 30.9 6.1 18 14.8 NNW 6 7 3 4 1015.5 - 0.0
18/08:00pm 33.5 30.6 4.7 16 15.6 NNW 9 11 5 6 1015.3 1011.3 0.0
18/07:30pm 34.0 30.2 3.7 15 16.2 N 13 17 7 9 1014.9 - 0.0
18/07:00pm 34.4 30.0 2.8 13 16.7 N 15 20 8 11 1014.6 - 0.0
18/06:30pm 34.7 31.3 3.9 14 16.6 NE 11 15 6 8 1014.4 - 0.0
18/06:00pm 34.8 33.3 4.8 15 16.4 ENE 2 11 1 6 1014.3 - 0.0
18/05:30pm 35.1 31.8 2.6 13 17.2 N 9 20 5 11 1014.3 - 0.0
18/05:00pm 36.3 30.4 1.6 11 18.2 NNW 22 28 12 15 1014.2 1010.1 0.0
18/04:30pm 36.4 32.7 2.2 12 18.1 WSW 11 28 6 15 1014.4 - 0.0
18/04:00pm 35.9 30.5 2.2 12 17.8 N 20 24 11 13 1014.5 - 0.0
18/03:30pm 35.8 30.6 2.3 12 17.7 N 19 26 10 14 1014.7 - 0.0
18/03:00pm 35.7 31.7 2.9 13 17.5 N 13 22 7 12 1014.9 - 0.0
18/02:30pm 35.5 31.4 2.4 12 17.5 WNW 13 24 7 13 1015.3 - 0.0
18/02:00pm 34.4 31.4 4.3 15 16.3 WNW 9 24 5 13 1015.8 1011.7 0.0
18/01:30pm 34.2 30.4 3.8 15 16.3 NE 13 20 7 11 1016.4 - 0.0
18/01:00pm 33.6 28.8 4.9 16 15.6 N 19 30 10 16 1016.8 - 0.0
18/12:30pm 33.1 28.9 5.9 18 15.0 N 17 26 9 14 1017.1 - 0.0
18/12:00pm 32.2 28.5 7.8 22 13.8 N 17 28 9 15 1017.8 - 0.0
18/11:30am 32.0 27.7 7.7 22 13.7 N 20 28 11 15 1018.1 - 0.0
18/11:00am 30.9 28.1 8.6 25 12.7 N 13 26 7 14 1018.2 1014.2 0.0

Other Formats:

Comma delimited format used in spreadsheet applications
http://www.bom.gov.au/fwo/IDD60801/IDD60801.94461.axf

JavaScript Object Notation format (JSON) in row-major order
http://www.bom.gov.au/fwo/IDD60801/IDD60801.94461.json